Time;durP1;ratioP1;P1;durP2;ratioP2;P2;SDS_P1;SDS_P2;PMS_P1;PMS_P2;Temp;Humidity;BMP_temperature;BMP_pressure;BME280_temperature;BME280_humidity;BME280_pressure;Samples;Min_cycle;Max_cycle;Signal;HPM_P1;HPM_P2
2022/12/11 00:00:41;;;;;;;18.70;12.67;;;;;;;3.62;100.00;95484.50;4951067;28;20484;-46
2022/12/11 00:03:10;;;;;;;30.90;11.93;;;;;;;3.49;100.00;95484.66;4951031;28;20457;-45
2022/12/11 00:05:44;;;;;;;26.95;15.50;;;;;;;3.72;100.00;95477.56;4939684;28;20075;-45
2022/12/11 00:08:13;;;;;;;31.20;17.45;;;;;;;3.78;100.00;95477.03;4945609;28;20074;-47
2022/12/11 00:10:47;;;;;;;26.45;14.82;;;;;;;3.68;100.00;95482.22;4938401;29;20079;-48
2022/12/11 00:13:17;;;;;;;33.72;18.45;;;;;;;3.82;100.00;95483.66;4949876;28;20078;-46
2022/12/11 00:15:45;;;;;;;35.33;19.77;;;;;;;3.86;100.00;95484.25;4949466;29;20539;-46
2022/12/11 00:18:14;;;;;;;34.40;18.90;;;;;;;3.74;100.00;95489.50;4948519;28;20093;-50
2022/12/11 00:20:42;;;;;;;36.00;19.63;;;;;;;3.78;100.00;95483.06;4946006;29;20132;-47
2022/12/11 00:23:11;;;;;;;31.40;16.90;;;;;;;3.86;100.00;95482.47;4949716;28;20075;-50
2022/12/11 00:25:41;;;;;;;29.88;16.55;;;;;;;3.66;100.00;95486.69;4938020;29;20516;-48
2022/12/11 00:28:09;;;;;;;32.92;17.73;;;;;;;3.69;100.00;95491.66;4940605;28;20072;-45
2022/12/11 00:30:41;;;;;;;36.42;19.48;;;;;;;3.61;100.00;95486.25;4952195;29;20074;-45
2022/12/11 00:33:10;;;;;;;28.13;15.63;;;;;;;3.43;100.00;95492.97;4948145;28;20156;-43
2022/12/11 00:35:38;;;;;;;36.72;19.52;;;;;;;3.74;100.00;95486.88;4947258;28;20079;-44
2022/12/11 00:38:07;;;;;;;34.53;18.65;;;;;;;3.68;100.00;95491.78;4951518;28;20113;-46
2022/12/11 00:40:36;;;;;;;37.15;19.00;;;;;;;3.76;100.00;95489.38;4951344;28;20094;-48
2022/12/11 00:43:04;;;;;;;33.67;17.55;;;;;;;3.69;100.00;95486.44;4945571;28;20087;-45
2022/12/11 00:45:36;;;;;;;37.67;20.45;;;;;;;3.83;100.00;95482.72;4965630;28;20161;-44
2022/12/11 00:48:07;;;;;;;31.10;16.10;;;;;;;3.63;100.00;95491.34;4950562;28;20608;-50
2022/12/11 00:50:36;;;;;;;28.90;16.17;;;;;;;3.60;100.00;95496.81;4954660;28;20078;-47
2022/12/11 00:53:05;;;;;;;24.20;13.45;;;;;;;3.41;100.00;95503.53;4952023;28;20095;-48
2022/12/11 00:55:37;;;;;;;23.80;13.90;;;;;;;3.48;100.00;95501.25;4943207;29;20174;-45
2022/12/11 00:58:06;;;;;;;29.40;15.60;;;;;;;3.38;100.00;95501.16;4952835;28;20063;-50
2022/12/11 01:00:34;;;;;;;28.98;15.75;;;;;;;3.43;100.00;95500.78;4953371;29;20461;-49
2022/12/11 01:03:02;;;;;;;30.52;17.15;;;;;;;3.55;100.00;95497.19;4953644;28;20519;-46
2022/12/11 01:05:33;;;;;;;36.60;19.23;;;;;;;3.66;100.00;95496.31;4949449;28;20097;-45
2022/12/11 01:08:01;;;;;;;31.27;17.35;;;;;;;3.57;100.00;95501.31;4953416;28;20114;-47
2022/12/11 01:10:29;;;;;;;34.00;18.40;;;;;;;3.50;100.00;95494.94;4953844;28;20472;-46
2022/12/11 01:13:00;;;;;;;30.85;17.67;;;;;;;3.20;100.00;95498.28;4952383;28;20067;-45
2022/12/11 01:15:30;;;;;;;29.33;16.73;;;;;;;3.17;100.00;95501.13;4947109;29;20161;-47
2022/12/11 01:17:59;;;;;;;32.47;18.38;;;;;;;3.06;100.00;95506.34;4951116;28;20075;-45
2022/12/11 01:20:28;;;;;;;31.85;17.75;;;;;;;3.41;100.00;95513.13;4947428;29;20570;-52
2022/12/11 01:23:15;;;;;;;27.73;15.93;;;;;;;3.24;100.00;95511.88;4943810;28;20056;-46
2022/12/11 01:25:44;;;;;;;29.10;15.65;;;;;;;3.31;100.00;95507.81;4943350;29;20094;-48
2022/12/11 01:28:12;;;;;;;27.60;16.02;;;;;;;3.55;100.00;95505.84;4954708;28;20082;-48
2022/12/11 01:30:42;;;;;;;29.92;16.20;;;;;;;3.52;100.00;95508.69;4939919;28;20087;-46
2022/12/11 01:33:11;;;;;;;30.50;15.88;;;;;;;3.39;100.00;95513.22;4953370;28;20066;-48
2022/12/11 01:35:40;;;;;;;27.90;14.90;;;;;;;3.60;100.00;95513.28;4946834;28;20451;-44
2022/12/11 01:38:09;;;;;;;27.33;15.65;;;;;;;3.45;100.00;95509.31;4946324;28;20067;-51
2022/12/11 01:40:46;;;;;;;27.98;15.60;;;;;;;3.38;100.00;95516.81;4949226;28;20507;-44
2022/12/11 01:43:21;;;;;;;30.58;16.38;;;;;;;3.50;100.00;95515.78;4946962;28;20552;-47
2022/12/11 01:45:50;;;;;;;22.10;12.77;;;;;;;3.45;100.00;95525.78;4952133;28;20110;-47
2022/12/11 01:48:19;;;;;;;23.30;12.75;;;;;;;3.41;100.00;95524.38;4953053;28;20071;-45
2022/12/11 01:50:50;;;;;;;22.73;12.68;;;;;;;3.43;100.00;95522.44;4946391;28;20110;-44
2022/12/11 01:53:20;;;;;;;21.70;13.43;;;;;;;3.33;100.00;95526.75;4953262;28;20062;-44
2022/12/11 01:55:51;;;;;;;26.10;14.13;;;;;;;3.47;100.00;95531.66;4952612;29;20079;-49
2022/12/11 01:58:21;;;;;;;28.13;14.27;;;;;;;3.53;100.00;95535.56;4946047;28;20087;-45
2022/12/11 02:00:49;;;;;;;22.10;13.67;;;;;;;3.57;100.00;95531.75;4941401;29;20083;-51
2022/12/11 02:03:18;;;;;;;27.45;14.75;;;;;;;3.56;100.00;95543.16;4953199;28;20035;-46
2022/12/11 02:05:46;;;;;;;25.80;15.40;;;;;;;3.68;100.00;95526.53;4952729;28;20090;-45
2022/12/11 02:08:15;;;;;;;24.35;13.68;;;;;;;3.60;100.00;95531.50;4951528;28;20436;-44
2022/12/11 02:10:57;;;;;;;27.13;15.95;;;;;;;3.76;100.00;95531.94;4947483;28;20282;-44
2022/12/11 02:13:32;;;;;;;22.63;13.25;;;;;;;3.55;100.00;95534.50;4951990;28;20199;-45
2022/12/11 02:16:05;;;;;;;24.63;14.30;;;;;;;3.66;100.00;95525.81;4952274;28;20086;-50
2022/12/11 02:18:37;;;;;;;27.40;15.68;;;;;;;3.61;100.00;95522.72;4950471;28;20086;-45
2022/12/11 02:21:09;;;;;;;23.75;13.70;;;;;;;3.42;100.00;95526.03;4946362;28;20083;-44
2022/12/11 02:23:55;;;;;;;25.95;15.05;;;;;;;3.49;100.00;95519.34;4946274;28;20105;-45
2022/12/11 02:26:36;;;;;;;21.52;12.45;;;;;;;3.41;100.00;95515.72;4949450;28;20082;-45
2022/12/11 02:29:09;;;;;;;23.80;13.63;;;;;;;3.57;100.00;95511.72;4952264;28;20082;-46
2022/12/11 02:31:39;;;;;;;10.77;7.15;;;;;;;3.14;100.00;95503.16;4952102;28;20094;-47
2022/12/11 02:34:10;;;;;;;14.55;9.98;;;;;;;3.19;100.00;95495.78;4952071;28;20458;-49
2022/12/11 02:36:42;;;;;;;13.13;8.82;;;;;;;3.06;100.00;95494.16;4951729;28;20098;-50
2022/12/11 02:39:12;;;;;;;10.27;7.82;;;;;;;3.00;100.00;95510.28;4957109;28;20078;-45
2022/12/11 02:41:43;;;;;;;15.70;9.85;;;;;;;3.11;100.00;95495.56;4941974;28;20502;-45
2022/12/11 02:44:14;;;;;;;10.73;8.05;;;;;;;2.85;100.00;95499.28;4952357;28;20554;-44
2022/12/11 02:46:44;;;;;;;12.20;9.05;;;;;;;2.82;100.00;95511.72;4944051;29;20082;-45
2022/12/11 02:49:13;;;;;;;15.55;10.48;;;;;;;3.01;100.00;95511.09;4951876;28;20086;-48
2022/12/11 02:51:43;;;;;;;12.52;8.00;;;;;;;2.95;100.00;95507.19;4938198;28;20094;-45
2022/12/11 02:54:14;;;;;;;19.52;12.27;;;;;;;3.36;100.00;95515.25;4951428;28;20108;-45
2022/12/11 02:56:45;;;;;;;12.63;9.63;;;;;;;3.21;100.00;95509.50;4951549;28;20087;-47
2022/12/11 02:59:19;;;;;;;12.52;8.35;;;;;;;3.16;100.00;95512.47;4947326;28;20066;-45
2022/12/11 03:01:47;;;;;;;15.93;9.60;;;;;;;3.06;100.00;95520.22;4952515;28;20082;-45
2022/12/11 03:04:16;;;;;;;14.90;9.38;;;;;;;3.40;100.00;95525.31;4952114;28;20118;-44
2022/12/11 03:06:48;;;;;;;17.98;11.57;;;;;;;3.22;100.00;95527.63;4946039;29;20078;-46
2022/12/11 03:09:16;;;;;;;13.68;10.32;;;;;;;3.25;100.00;95526.56;4951812;28;20091;-49
2022/12/11 03:11:45;;;;;;;17.60;12.25;;;;;;;3.57;100.00;95523.94;4945305;29;20086;-44
2022/12/11 03:14:14;;;;;;;18.75;11.82;;;;;;;3.39;100.00;95530.66;4945411;28;20070;-49
2022/12/11 03:16:46;;;;;;;;;;;;;;;3.35;100.00;95531.84;4951827;28;20085;-45
2022/12/11 03:19:24;;;;;;;20.15;12.98;;;;;;;3.57;100.00;95534.38;4951336;28;19969;-47
2022/12/11 03:21:54;;;;;;;16.23;10.57;;;;;;;3.77;100.00;95538.78;4953681;28;20039;-45
2022/12/11 03:24:27;;;;;;;20.45;13.55;;;;;;;4.13;100.00;95531.50;4944908;28;20144;-46
2022/12/11 03:26:56;;;;;;;22.40;13.57;;;;;;;4.21;100.00;95536.91;4950963;28;20097;-47
2022/12/11 03:29:32;;;;;;;21.75;13.90;;;;;;;4.07;100.00;95534.63;4950027;28;20071;-44
2022/12/11 03:32:05;;;;;;;21.92;13.73;;;;;;;4.11;100.00;95532.56;4950636;28;20081;-51
2022/12/11 03:34:37;;;;;;;21.83;14.13;;;;;;;3.95;100.00;95531.22;4951098;28;20039;-45
2022/12/11 03:37:07;;;;;;;20.67;13.18;;;;;;;3.82;100.00;95535.81;4951359;28;20083;-46
2022/12/11 03:39:38;;;;;;;21.60;13.90;;;;;;;3.82;100.00;95543.66;4951031;28;20075;-45
2022/12/11 03:42:08;;;;;;;20.20;12.27;;;;;;;3.73;100.00;95545.22;4942256;29;20086;-46
2022/12/11 03:44:38;;;;;;;19.10;12.98;;;;;;;3.86;100.00;95544.22;4944539;28;20089;-48
2022/12/11 03:47:08;;;;;;;18.45;11.77;;;;;;;3.74;100.00;95535.59;4951111;29;20079;-48
2022/12/11 03:49:39;;;;;;;18.17;12.10;;;;;;;3.75;100.00;95545.06;4950959;28;20098;-47
2022/12/11 03:52:10;;;;;;;18.30;12.10;;;;;;;3.69;100.00;95538.59;4951481;29;20077;-47
2022/12/11 03:54:39;;;;;;;18.25;12.32;;;;;;;3.64;100.00;95539.91;4939656;28;20101;-47
2022/12/11 03:57:08;;;;;;;15.40;10.23;;;;;;;3.51;100.00;95538.31;4945814;29;20779;-49
2022/12/11 03:59:38;;;;;;;18.00;11.88;;;;;;;3.37;100.00;95541.19;4950452;28;20089;-49
2022/12/11 04:02:09;;;;;;;17.20;11.65;;;;;;;3.84;100.00;95539.13;4951505;28;20095;-47
2022/12/11 04:04:38;;;;;;;16.75;11.55;;;;;;;3.48;100.00;95537.75;4952560;28;20082;-49
2022/12/11 04:07:07;;;;;;;15.52;11.15;;;;;;;3.55;100.00;95539.72;4942016;29;20059;-45
2022/12/11 04:09:36;;;;;;;15.23;10.18;;;;;;;3.41;100.00;95545.22;4948722;28;20470;-47
2022/12/11 04:12:04;;;;;;;16.75;10.63;;;;;;;3.46;100.00;95543.06;4948607;29;20658;-44
2022/12/11 04:25:51;;;;;;;13.52;9.73;;;;;;;2.88;100.00;95539.03;4954043;28;20079;-44
2022/12/11 04:28:19;;;;;;;17.25;10.48;;;;;;;2.65;100.00;95543.44;4949340;28;20075;-47
2022/12/11 04:30:49;;;;;;;13.30;9.45;;;;;;;2.72;100.00;95540.25;4954081;28;20094;-45
2022/12/11 04:33:18;;;;;;;10.88;7.82;;;;;;;2.67;100.00;95546.75;4954574;28;20075;-49
2022/12/11 04:35:47;;;;;;;7.57;6.77;;;;;;;2.78;100.00;95544.13;4950078;28;20082;-49
2022/12/11 04:38:15;;;;;;;10.00;7.85;;;;;;;2.65;100.00;95556.44;4948350;28;20598;-44
2022/12/11 04:40:43;;;;;;;12.15;8.82;;;;;;;2.65;100.00;95549.50;4953765;28;20480;-48
2022/12/11 04:43:12;;;;;;;11.35;7.32;;;;;;;2.55;100.00;95541.56;4954085;28;20094;-47
2022/12/11 04:45:40;;;;;;;13.23;8.98;;;;;;;2.64;100.00;95539.19;4952922;28;20693;-45
2022/12/11 04:48:08;;;;;;;14.27;9.32;;;;;;;2.65;100.00;95539.09;4954147;29;20071;-49
2022/12/11 04:50:38;;;;;;;13.45;9.18;;;;;;;2.67;100.00;95536.34;4954471;28;20154;-47
2022/12/11 04:53:06;;;;;;;13.57;9.23;;;;;;;2.37;100.00;95530.78;4948239;29;20075;-52
2022/12/11 04:55:35;;;;;;;12.35;8.90;;;;;;;2.52;100.00;95534.00;4951799;28;20593;-53
2022/12/11 04:58:03;;;;;;;9.85;7.50;;;;;;;2.44;100.00;95528.53;4954436;28;20531;-48
2022/12/11 05:00:31;;;;;;;13.85;9.30;;;;;;;2.45;100.00;95527.59;4948645;28;20067;-48
2022/12/11 05:02:59;;;;;;;11.52;8.00;;;;;;;2.43;100.00;95526.88;4953427;28;20536;-45
2022/12/11 05:05:28;;;;;;;12.73;8.93;;;;;;;2.44;100.00;95535.50;4947034;28;20081;-44
2022/12/11 05:07:57;;;;;;;15.65;9.98;;;;;;;2.39;100.00;95538.47;4941129;29;20091;-44
2022/12/11 05:10:26;;;;;;;13.32;9.30;;;;;;;2.53;100.00;95534.81;4943230;28;20080;-48
2022/12/11 05:12:54;;;;;;;15.48;10.38;;;;;;;2.47;100.00;95541.31;4953433;28;20090;-48
2022/12/11 05:15:22;;;;;;;18.63;12.80;;;;;;;2.37;100.00;95535.16;4971805;28;20070;-49
2022/12/11 05:17:51;;;;;;;16.80;10.70;;;;;;;2.13;100.00;95530.03;4957176;28;20447;-46
2022/12/11 05:20:19;;;;;;;18.17;10.95;;;;;;;2.20;100.00;95527.81;4953542;28;20074;-44
2022/12/11 05:22:47;;;;;;;18.90;11.85;;;;;;;2.16;100.00;95526.38;4950076;28;20094;-47
2022/12/11 05:25:17;;;;;;;19.00;11.82;;;;;;;2.10;100.00;95532.91;4953232;28;20523;-44
2022/12/11 05:27:45;;;;;;;20.17;11.98;;;;;;;2.18;100.00;95533.13;4952563;28;20063;-44
2022/12/11 05:30:14;;;;;;;21.17;12.80;;;;;;;2.20;100.00;95527.81;4954411;28;20086;-46
2022/12/11 05:32:42;;;;;;;19.85;12.18;;;;;;;2.25;100.00;95530.91;4943379;28;20074;-44
2022/12/11 05:35:10;;;;;;;21.77;12.27;;;;;;;2.42;100.00;95530.44;4945173;28;20067;-45
2022/12/11 05:37:39;;;;;;;21.70;12.93;;;;;;;2.54;100.00;95529.47;4943227;29;20095;-48
2022/12/11 05:40:11;;;;;;;18.70;11.85;;;;;;;2.57;100.00;95524.03;4953315;28;20470;-44
2022/12/11 05:42:41;;;;;;;19.05;11.88;;;;;;;2.63;100.00;95519.31;4952972;28;20075;-46
2022/12/11 05:45:10;;;;;;;22.20;14.07;;;;;;;2.74;100.00;95527.09;4954357;28;20093;-46
2022/12/11 05:47:39;;;;;;;22.08;13.38;;;;;;;2.86;100.00;95528.75;4943935;28;20089;-44
2022/12/11 05:50:08;;;;;;;21.00;12.85;;;;;;;2.81;100.00;95534.31;4950103;28;20542;-45
2022/12/11 05:52:36;;;;;;;21.63;13.60;;;;;;;2.97;100.00;95523.53;4951894;29;20082;-50
2022/12/11 05:55:05;;;;;;;23.13;13.18;;;;;;;3.24;100.00;95524.91;4939949;28;20071;-46
2022/12/11 05:57:33;;;;;;;22.67;14.38;;;;;;;3.04;100.00;95527.31;4949711;28;20075;-45
2022/12/11 06:00:04;;;;;;;23.80;14.13;;;;;;;3.04;100.00;95532.50;4946539;28;20087;-48
2022/12/11 06:02:34;;;;;;;22.88;12.85;;;;;;;3.21;100.00;95531.19;4946984;29;20075;-50
2022/12/11 06:05:03;;;;;;;;;;;;;;;3.17;100.00;95528.94;4951604;28;20451;-48
2022/12/11 06:07:31;;;;;;;21.77;13.30;;;;;;;3.17;100.00;95523.75;4948895;28;19962;-45
2022/12/11 06:09:59;;;;;;;25.25;14.13;;;;;;;3.14;100.00;95524.81;4952125;28;20126;-45
2022/12/11 06:12:28;;;;;;;22.77;14.00;;;;;;;3.06;100.00;95528.03;4945138;28;20087;-45
2022/12/11 06:14:57;;;;;;;19.55;13.27;;;;;;;3.20;100.00;95519.09;4947791;28;20367;-45
2022/12/11 06:17:26;;;;;;;21.52;13.50;;;;;;;3.24;100.00;95511.88;4947962;29;20071;-51
2022/12/11 06:19:55;;;;;;;19.87;12.93;;;;;;;3.06;100.00;95514.16;4947241;28;20101;-46
2022/12/11 06:22:23;;;;;;;20.67;12.85;;;;;;;3.23;100.00;95510.19;4952578;28;20498;-47
2022/12/11 06:24:51;;;;;;;23.65;14.38;;;;;;;2.89;100.00;95518.13;4952956;28;20530;-48
2022/12/11 06:27:19;;;;;;;22.90;14.00;;;;;;;3.05;100.00;95508.13;4954434;28;20066;-49
2022/12/11 06:29:48;;;;;;;23.15;13.43;;;;;;;3.09;100.00;95509.53;4952255;28;20097;-46
2022/12/11 06:32:16;;;;;;;25.00;14.10;;;;;;;2.70;100.00;95512.69;4950986;29;20079;-48
2022/12/11 06:34:46;;;;;;;21.83;13.88;;;;;;;2.96;100.00;95515.81;4956822;28;20086;-46
2022/12/11 06:37:14;;;;;;;22.13;13.50;;;;;;;2.78;100.00;95516.31;4944193;28;20074;-50
2022/12/11 06:39:42;;;;;;;24.17;13.98;;;;;;;2.64;100.00;95527.00;4951518;28;20864;-50
2022/12/11 06:42:12;;;;;;;22.52;14.30;;;;;;;2.66;100.00;95530.31;4945609;28;20083;-45
2022/12/11 06:44:40;;;;;;;22.95;13.57;;;;;;;2.61;100.00;95527.22;4959978;28;20085;-48
2022/12/11 06:47:08;;;;;;;21.50;12.65;;;;;;;2.45;100.00;95521.56;4945864;28;20181;-44
2022/12/11 06:49:37;;;;;;;21.65;13.30;;;;;;;2.60;100.00;95525.59;4945203;28;20093;-45
2022/12/11 06:52:06;;;;;;;21.33;12.68;;;;;;;2.41;100.00;95527.94;4951855;29;20101;-48
2022/12/11 06:54:35;;;;;;;22.85;13.88;;;;;;;2.50;100.00;95522.84;4942517;28;20117;-49
2022/12/11 06:57:04;;;;;;;21.23;12.68;;;;;;;2.49;100.00;95525.59;4948338;28;20082;-51
2022/12/11 06:59:32;;;;;;;21.98;12.57;;;;;;;2.26;100.00;95527.34;4945781;28;20439;-45
2022/12/11 07:02:00;;;;;;;24.02;13.00;;;;;;;2.45;100.00;95518.97;4952043;28;20082;-48
2022/12/11 07:04:29;;;;;;;21.67;13.52;;;;;;;2.29;100.00;95514.09;4944890;28;20090;-47
2022/12/11 07:06:57;;;;;;;20.17;12.32;;;;;;;2.44;100.00;95514.69;4950727;28;20108;-45
2022/12/11 07:09:28;;;;;;;21.52;12.88;;;;;;;2.61;100.00;95520.28;4956428;28;20093;-49
2022/12/11 07:11:56;;;;;;;21.15;12.82;;;;;;;2.57;100.00;95518.00;4951942;29;20085;-48
2022/12/11 07:14:24;;;;;;;22.80;13.10;;;;;;;2.63;100.00;95514.13;4944926;28;20086;-47
2022/12/11 07:16:52;;;;;;;21.83;13.00;;;;;;;2.64;100.00;95516.59;4950168;28;20086;-48
2022/12/11 07:19:21;;;;;;;19.98;13.18;;;;;;;2.70;100.00;95517.88;4943532;28;20074;-44
2022/12/11 07:21:49;;;;;;;20.00;12.55;;;;;;;2.61;100.00;95529.84;4963716;28;20073;-46
2022/12/11 07:24:18;;;;;;;21.77;13.82;;;;;;;2.94;100.00;95530.75;4951579;28;20089;-44
2022/12/11 07:26:47;;;;;;;24.33;13.80;;;;;;;3.04;100.00;95529.91;4947404;28;20523;-45
2022/12/11 07:29:16;;;;;;;24.38;14.60;;;;;;;3.00;100.00;95536.31;4943610;29;20537;-45
2022/12/11 07:31:44;;;;;;;24.73;13.65;;;;;;;3.06;100.00;95540.19;4943892;28;20527;-45
2022/12/11 07:34:13;;;;;;;23.88;14.32;;;;;;;2.93;100.00;95542.97;4951600;28;20071;-45
2022/12/11 07:36:42;;;;;;;24.10;14.40;;;;;;;2.99;100.00;95539.84;4942732;28;20102;-44
2022/12/11 07:39:11;;;;;;;23.40;14.40;;;;;;;3.22;100.00;95540.63;4946299;29;20459;-47
2022/12/11 07:41:40;;;;;;;23.77;14.05;;;;;;;3.41;100.00;95542.63;4950953;28;20172;-50
2022/12/11 07:44:09;;;;;;;24.58;14.20;;;;;;;3.31;100.00;95542.53;4951264;28;20110;-47
2022/12/11 07:46:38;;;;;;;24.53;14.53;;;;;;;3.50;100.00;95544.47;4944365;28;20078;-45
2022/12/11 07:49:06;;;;;;;22.90;13.23;;;;;;;3.44;100.00;95538.91;4950881;28;20071;-45
2022/12/11 07:51:36;;;;;;;24.17;14.48;;;;;;;3.62;100.00;95537.44;4968772;28;20079;-47
2022/12/11 07:54:06;;;;;;;25.35;15.18;;;;;;;3.84;100.00;95531.28;4948569;29;20082;-45
2022/12/11 07:56:35;;;;;;;23.85;14.48;;;;;;;3.70;100.00;95536.81;4944468;28;20079;-48
2022/12/11 07:59:04;;;;;;;19.90;13.23;;;;;;;3.79;100.00;95536.88;4941720;29;20086;-46
2022/12/11 08:01:35;;;;;;;25.50;14.23;;;;;;;3.97;100.00;95539.75;4950808;28;20071;-51
2022/12/11 08:04:04;;;;;;;24.05;13.55;;;;;;;3.94;100.00;95534.78;4948927;28;20067;-47
2022/12/11 08:06:35;;;;;;;25.33;15.27;;;;;;;3.72;100.00;95537.53;4950438;28;20075;-50
2022/12/11 08:09:05;;;;;;;23.48;14.38;;;;;;;4.19;100.00;95535.34;4940194;29;20067;-45
2022/12/11 08:11:34;;;;;;;22.40;13.43;;;;;;;4.14;100.00;95543.59;4949747;28;20097;-47
2022/12/11 08:14:02;;;;;;;26.45;15.05;;;;;;;3.98;100.00;95535.38;4949714;28;20474;-44
2022/12/11 08:16:30;;;;;;;25.20;13.75;;;;;;;4.05;100.00;95545.16;4939900;28;20456;-44
2022/12/11 08:19:00;;;;;;;24.60;13.73;;;;;;;4.24;100.00;95539.25;4951062;28;20079;-44
2022/12/11 08:21:29;;;;;;;23.17;14.53;;;;;;;4.02;100.00;95544.59;4946157;28;20519;-44
2022/12/11 08:23:57;;;;;;;26.67;14.73;;;;;;;4.07;100.00;95549.44;4950911;29;20442;-47
2022/12/11 08:26:27;;;;;;;20.63;13.05;;;;;;;3.91;100.00;95548.09;4950539;28;20106;-51
2022/12/11 08:28:56;;;;;;;;;;;;;;;3.97;100.00;95554.59;4945752;28;20087;-44
2022/12/11 08:31:24;;;;;;;21.58;12.85;;;;;;;4.17;100.00;95552.94;4950171;28;19957;-45
2022/12/11 08:33:54;;;;;;;24.23;12.55;;;;;;;4.03;100.00;95549.69;4944540;28;20451;-47
2022/12/11 08:36:25;;;;;;;21.88;13.80;;;;;;;4.34;100.00;95551.53;4944429;28;20483;-48
2022/12/11 08:38:54;;;;;;;24.40;14.55;;;;;;;4.81;100.00;95552.69;4938036;29;20094;-47
2022/12/11 08:41:24;;;;;;;24.43;13.97;;;;;;;4.33;100.00;95552.47;4944385;28;20559;-50
2022/12/11 08:43:53;;;;;;;24.33;14.18;;;;;;;4.78;100.00;95555.56;4938008;29;20077;-49
2022/12/11 08:46:23;;;;;;;21.90;12.43;;;;;;;4.73;100.00;95550.75;4947411;28;20094;-48
2022/12/11 08:48:52;;;;;;;25.13;14.80;;;;;;;4.98;100.00;95552.06;4949417;28;20093;-46
2022/12/11 08:51:22;;;;;;;25.00;14.52;;;;;;;4.74;100.00;95554.19;4957017;28;20073;-46
2022/12/11 08:53:54;;;;;;;21.58;14.38;;;;;;;4.67;100.00;95559.09;4949558;29;20082;-46
2022/12/11 08:56:23;;;;;;;22.10;12.25;;;;;;;4.38;100.00;95553.75;4949438;28;20515;-45
2022/12/11 08:58:52;;;;;;;20.70;12.82;;;;;;;4.15;100.00;95552.22;4953053;28;20114;-51
2022/12/11 09:01:22;;;;;;;23.50;13.35;;;;;;;4.16;100.00;95562.53;4957367;28;20059;-46
2022/12/11 09:03:51;;;;;;;20.08;12.57;;;;;;;4.26;100.00;95559.97;4953586;28;20098;-45
2022/12/11 09:06:22;;;;;;;19.02;11.55;;;;;;;4.21;100.00;95552.56;4946864;28;20071;-44
2022/12/11 09:08:52;;;;;;;25.95;14.60;;;;;;;4.31;100.00;95555.22;4947164;28;20110;-50
2022/12/11 09:11:23;;;;;;;23.92;13.63;;;;;;;4.39;100.00;95555.41;4970059;28;20081;-46
2022/12/11 09:13:51;;;;;;;;;;;;;;;4.66;100.00;95554.84;4954605;28;20097;-47
2022/12/11 09:16:22;;;;;;;20.00;12.23;;;;;;;4.66;100.00;95562.69;4947506;28;19968;-48
2022/12/11 09:18:52;;;;;;;22.58;13.60;;;;;;;4.67;100.00;95558.28;4951708;29;20087;-46
2022/12/11 09:21:22;;;;;;;16.98;11.05;;;;;;;4.21;100.00;95555.16;4952401;28;20075;-45
2022/12/11 09:23:54;;;;;;;20.73;13.48;;;;;;;4.65;100.00;95555.00;4964572;28;20075;-48
2022/12/11 09:26:23;;;;;;;23.23;13.77;;;;;;;4.41;100.00;95563.94;4952951;28;20105;-46
2022/12/11 09:28:52;;;;;;;24.60;13.73;;;;;;;4.83;100.00;95570.88;4968352;28;20091;-51
2022/12/11 09:31:22;;;;;;;23.35;13.68;;;;;;;4.57;100.00;95552.19;4947595;28;20083;-46
2022/12/11 09:33:52;;;;;;;23.48;13.75;;;;;;;4.60;100.00;95557.97;4947485;29;20090;-44
2022/12/11 09:36:20;;;;;;;23.60;14.20;;;;;;;4.52;100.00;95553.41;4947122;28;20070;-48
2022/12/11 09:38:48;;;;;;;19.38;11.27;;;;;;;3.94;100.00;95553.06;4953420;28;20082;-48
2022/12/11 09:41:45;;;;;;;15.57;9.43;;;;;;;3.90;100.00;95548.22;4953121;28;20087;-50
2022/12/11 09:44:28;;;;;;;20.63;12.27;;;;;;;4.07;100.00;95550.25;4937315;29;20093;-45
2022/12/11 09:46:57;;;;;;;9.77;7.30;;;;;;;3.96;100.00;95540.72;4958596;28;20071;-46
2022/12/11 09:49:31;;;;;;;14.65;9.73;;;;;;;3.62;100.00;95547.03;4940714;29;20074;-44
2022/12/11 09:52:11;;;;;;;16.20;10.35;;;;;;;3.86;100.00;95544.22;4947328;28;20067;-48
2022/12/11 09:54:44;;;;;;;17.15;10.55;;;;;;;3.98;100.00;95527.53;4944264;28;20078;-47
2022/12/11 09:57:23;;;;;;;14.13;9.07;;;;;;;3.68;100.00;95533.50;4949975;28;20094;-44
2022/12/11 10:00:04;;;;;;;15.07;10.27;;;;;;;3.91;100.00;95536.81;4944883;29;20071;-44
2022/12/11 10:02:47;;;;;;;15.60;10.10;;;;;;;3.79;100.00;95536.06;4952882;28;20498;-45
2022/12/11 10:05:21;;;;;;;14.75;9.18;;;;;;;4.05;100.00;95532.13;4944311;28;20106;-45
2022/12/11 10:07:52;;;;;;;15.18;8.95;;;;;;;3.92;100.00;95528.91;4951691;28;20067;-52
2022/12/11 10:10:26;;;;;;;17.42;10.05;;;;;;;4.01;100.00;95529.91;4956735;28;20460;-44
2022/12/11 10:13:01;;;;;;;15.10;8.70;;;;;;;3.63;100.00;95530.44;4953631;28;20428;-46
2022/12/11 10:15:35;;;;;;;13.55;8.57;;;;;;;3.46;100.00;95530.03;4942910;28;20081;-44
2022/12/11 10:18:06;;;;;;;13.57;8.82;;;;;;;3.74;100.00;95527.78;4945715;29;20067;-51
2022/12/11 10:20:39;;;;;;;14.55;10.00;;;;;;;3.61;100.00;95521.91;4947146;28;20658;-50
2022/12/11 10:23:09;;;;;;;16.40;11.52;;;;;;;3.83;100.00;95524.44;4946963;29;20070;-46
2022/12/11 10:25:41;;;;;;;17.98;11.38;;;;;;;4.04;100.00;95516.59;4946169;28;20230;-53
2022/12/11 10:28:13;;;;;;;15.65;10.57;;;;;;;4.14;100.00;95514.06;4947273;29;20083;-45
2022/12/11 10:30:48;;;;;;;14.35;9.23;;;;;;;4.14;100.00;95507.06;4945862;28;20079;-45
2022/12/11 10:33:21;;;;;;;14.27;8.70;;;;;;;3.60;100.00;95509.84;4945826;28;20087;-48
2022/12/11 10:35:51;;;;;;;10.90;7.80;;;;;;;3.79;100.00;95505.59;4949883;28;20071;-45
2022/12/11 10:38:26;;;;;;;15.63;10.18;;;;;;;4.13;100.00;95504.56;4949882;28;20125;-46
2022/12/11 10:40:56;;;;;;;15.85;9.95;;;;;;;4.05;100.00;95503.41;4952121;28;20083;-45
2022/12/11 10:43:37;;;;;;;9.43;7.60;;;;;;;3.88;100.00;95511.00;4939060;28;20075;-46
2022/12/11 10:46:05;;;;;;;;;;;;;;;3.73;100.00;95506.09;4949606;28;20721;-47
2022/12/11 10:48:34;;;;;;;5.32;4.82;;;;;;;3.62;100.00;95502.72;4939598;29;19962;-46
2022/12/11 10:51:04;;;;;;;8.90;6.60;;;;;;;3.35;100.00;95501.41;4950467;28;20074;-47
2022/12/11 10:53:33;;;;;;;;;;;;;;;3.17;100.00;95500.31;4948247;28;20079;-47
2022/12/11 10:56:02;;;;;;;8.75;6.68;;;;;;;3.03;100.00;95494.41;4951737;28;19969;-49
2022/12/11 10:58:32;;;;;;;8.00;6.35;;;;;;;2.83;100.00;95495.16;4959311;28;20507;-45
2022/12/11 11:01:11;;;;;;;13.70;9.32;;;;;;;3.09;100.00;95495.69;4946767;28;20534;-47
2022/12/11 11:03:52;;;;;;;11.25;7.97;;;;;;;2.99;100.00;95494.75;4949315;28;20093;-48
2022/12/11 11:06:21;;;;;;;16.10;10.60;;;;;;;3.20;100.00;95487.84;4954034;28;20075;-50
2022/12/11 11:08:52;;;;;;;13.40;8.93;;;;;;;3.22;100.00;95475.50;4951988;28;20070;-44
2022/12/11 11:11:26;;;;;;;11.25;7.63;;;;;;;3.28;100.00;95471.59;4951647;28;20075;-44
2022/12/11 11:14:06;;;;;;;12.57;7.30;;;;;;;3.13;100.00;95468.44;4944385;28;20090;-51
2022/12/11 11:16:37;;;;;;;20.77;11.07;;;;;;;3.70;100.00;95463.81;4939413;28;20075;-44
2022/12/11 11:19:06;;;;;;;14.63;9.00;;;;;;;3.79;100.00;95469.09;4949943;29;20510;-49
2022/12/11 11:21:35;;;;;;;13.23;8.90;;;;;;;3.43;100.00;95467.72;4950053;28;20078;-45
2022/12/11 11:24:04;;;;;;;12.40;8.57;;;;;;;3.62;100.00;95463.63;4950095;28;20094;-45
2022/12/11 11:26:33;;;;;;;11.93;7.88;;;;;;;3.62;100.00;95456.63;4949923;28;20078;-44
2022/12/11 11:29:27;;;;;;;15.07;9.52;;;;;;;3.87;100.00;95452.81;4949705;29;20106;-49
2022/12/11 11:31:57;;;;;;;14.48;8.55;;;;;;;4.04;100.00;95447.00;4951639;28;20108;-50
2022/12/11 11:34:25;;;;;;;11.90;8.35;;;;;;;3.85;100.00;95436.44;4951554;28;20086;-50
2022/12/11 11:36:59;;;;;;;15.85;10.07;;;;;;;4.36;100.00;95432.97;4951265;28;20070;-46
2022/12/11 11:39:32;;;;;;;9.45;7.22;;;;;;;4.13;100.00;95434.97;4948501;29;20156;-52
2022/12/11 11:42:02;;;;;;;9.30;6.90;;;;;;;3.93;100.00;95433.22;4951074;28;20094;-47
2022/12/11 11:44:34;;;;;;;8.15;6.57;;;;;;;3.65;100.00;95438.13;4944878;29;20087;-46
2022/12/11 11:47:06;;;;;;;10.82;6.63;;;;;;;3.83;100.00;95438.38;4953170;28;20086;-44